sensor_id;sensor_type;location;lat;lon;timestamp;P1;durP1;ratioP1;P2;durP2;ratioP2
609;SDS011;292;48.800;9.216;2023-12-22T00:01:46;2.95;;;0.80;;
609;SDS011;292;48.800;9.216;2023-12-22T00:04:13;2.88;;;0.70;;
609;SDS011;292;48.800;9.216;2023-12-22T00:06:41;8.00;;;1.70;;
609;SDS011;292;48.800;9.216;2023-12-22T00:09:08;2.15;;;0.70;;
609;SDS011;292;48.800;9.216;2023-12-22T00:11:36;6.78;;;1.42;;
609;SDS011;292;48.800;9.216;2023-12-22T00:14:03;4.00;;;1.20;;
609;SDS011;292;48.800;9.216;2023-12-22T00:16:30;5.40;;;1.20;;
609;SDS011;292;48.800;9.216;2023-12-22T00:18:57;3.08;;;1.00;;
609;SDS011;292;48.800;9.216;2023-12-22T00:21:24;8.07;;;0.98;;
609;SDS011;292;48.800;9.216;2023-12-22T00:23:52;3.38;;;0.98;;
609;SDS011;292;48.800;9.216;2023-12-22T00:26:19;2.50;;;0.73;;
609;SDS011;292;48.800;9.216;2023-12-22T00:28:48;4.30;;;1.00;;
609;SDS011;292;48.800;9.216;2023-12-22T00:31:15;8.68;;;2.08;;
609;SDS011;292;48.800;9.216;2023-12-22T00:33:42;10.85;;;1.80;;
609;SDS011;292;48.800;9.216;2023-12-22T00:36:09;8.95;;;1.95;;
609;SDS011;292;48.800;9.216;2023-12-22T00:38:36;5.15;;;1.15;;
609;SDS011;292;48.800;9.216;2023-12-22T00:41:03;3.08;;;0.93;;
609;SDS011;292;48.800;9.216;2023-12-22T00:43:29;2.97;;;1.00;;
609;SDS011;292;48.800;9.216;2023-12-22T00:45:58;4.53;;;1.10;;
609;SDS011;292;48.800;9.216;2023-12-22T00:48:25;3.22;;;0.80;;
609;SDS011;292;48.800;9.216;2023-12-22T00:50:52;6.05;;;1.10;;
609;SDS011;292;48.800;9.216;2023-12-22T00:53:19;3.13;;;1.02;;
609;SDS011;292;48.800;9.216;2023-12-22T00:55:46;8.45;;;1.20;;
609;SDS011;292;48.800;9.216;2023-12-22T00:58:14;2.10;;;0.93;;
609;SDS011;292;48.800;9.216;2023-12-22T01:00:40;2.08;;;0.77;;
609;SDS011;292;48.800;9.216;2023-12-22T01:03:09;2.70;;;0.90;;
609;SDS011;292;48.800;9.216;2023-12-22T01:05:37;3.90;;;1.05;;
609;SDS011;292;48.800;9.216;2023-12-22T01:08:03;8.73;;;1.30;;
609;SDS011;292;48.800;9.216;2023-12-22T01:10:31;4.07;;;0.90;;
609;SDS011;292;48.800;9.216;2023-12-22T01:12:58;8.90;;;1.27;;
609;SDS011;292;48.800;9.216;2023-12-22T01:15:25;6.60;;;1.38;;
609;SDS011;292;48.800;9.216;2023-12-22T01:17:52;5.53;;;1.73;;
609;SDS011;292;48.800;9.216;2023-12-22T01:20:20;7.30;;;1.42;;
609;SDS011;292;48.800;9.216;2023-12-22T01:22:47;9.18;;;1.00;;
609;SDS011;292;48.800;9.216;2023-12-22T01:25:14;5.75;;;1.25;;
609;SDS011;292;48.800;9.216;2023-12-22T01:27:41;11.85;;;1.50;;
609;SDS011;292;48.800;9.216;2023-12-22T01:30:08;6.97;;;1.40;;
609;SDS011;292;48.800;9.216;2023-12-22T01:32:35;6.80;;;1.17;;
609;SDS011;292;48.800;9.216;2023-12-22T01:35:02;10.15;;;1.13;;
609;SDS011;292;48.800;9.216;2023-12-22T01:37:35;4.93;;;1.10;;
609;SDS011;292;48.800;9.216;2023-12-22T01:40:03;4.15;;;1.02;;
609;SDS011;292;48.800;9.216;2023-12-22T01:42:30;5.78;;;1.25;;
609;SDS011;292;48.800;9.216;2023-12-22T01:44:57;4.35;;;1.40;;
609;SDS011;292;48.800;9.216;2023-12-22T01:47:24;8.45;;;1.50;;
609;SDS011;292;48.800;9.216;2023-12-22T01:49:51;4.63;;;1.30;;
609;SDS011;292;48.800;9.216;2023-12-22T01:52:18;6.05;;;1.30;;
609;SDS011;292;48.800;9.216;2023-12-22T01:54:47;4.60;;;1.13;;
609;SDS011;292;48.800;9.216;2023-12-22T01:57:15;11.65;;;1.33;;
609;SDS011;292;48.800;9.216;2023-12-22T01:59:44;1.67;;;0.70;;
609;SDS011;292;48.800;9.216;2023-12-22T02:02:12;7.03;;;1.00;;
609;SDS011;292;48.800;9.216;2023-12-22T02:04:39;4.13;;;1.05;;
609;SDS011;292;48.800;9.216;2023-12-22T02:07:07;3.47;;;1.00;;
609;SDS011;292;48.800;9.216;2023-12-22T02:09:35;5.15;;;1.00;;
609;SDS011;292;48.800;9.216;2023-12-22T02:12:05;3.30;;;0.90;;
609;SDS011;292;48.800;9.216;2023-12-22T02:14:32;2.85;;;0.70;;
609;SDS011;292;48.800;9.216;2023-12-22T02:17:02;3.47;;;0.70;;
609;SDS011;292;48.800;9.216;2023-12-22T02:19:40;4.65;;;0.98;;
609;SDS011;292;48.800;9.216;2023-12-22T02:22:09;6.45;;;0.63;;
609;SDS011;292;48.800;9.216;2023-12-22T02:24:38;1.88;;;0.70;;
609;SDS011;292;48.800;9.216;2023-12-22T02:27:08;3.47;;;0.75;;
609;SDS011;292;48.800;9.216;2023-12-22T02:29:41;3.28;;;0.88;;
609;SDS011;292;48.800;9.216;2023-12-22T02:32:17;1.58;;;0.70;;
609;SDS011;292;48.800;9.216;2023-12-22T02:34:49;1.38;;;0.70;;
609;SDS011;292;48.800;9.216;2023-12-22T02:37:18;2.25;;;0.80;;
609;SDS011;292;48.800;9.216;2023-12-22T02:39:49;7.35;;;1.10;;
609;SDS011;292;48.800;9.216;2023-12-22T02:42:17;6.55;;;1.33;;
609;SDS011;292;48.800;9.216;2023-12-22T02:44:48;1.02;;;0.70;;
609;SDS011;292;48.800;9.216;2023-12-22T02:47:15;9.27;;;1.52;;
609;SDS011;292;48.800;9.216;2023-12-22T02:49:42;4.00;;;1.17;;
609;SDS011;292;48.800;9.216;2023-12-22T02:52:09;3.22;;;1.02;;
609;SDS011;292;48.800;9.216;2023-12-22T02:54:35;7.43;;;1.23;;
609;SDS011;292;48.800;9.216;2023-12-22T02:57:06;5.95;;;1.35;;
609;SDS011;292;48.800;9.216;2023-12-22T02:59:33;5.97;;;1.48;;
609;SDS011;292;48.800;9.216;2023-12-22T03:02:00;9.45;;;1.85;;
609;SDS011;292;48.800;9.216;2023-12-22T03:04:27;3.58;;;0.93;;
609;SDS011;292;48.800;9.216;2023-12-22T03:06:54;5.25;;;1.30;;
609;SDS011;292;48.800;9.216;2023-12-22T03:09:21;8.27;;;1.50;;
609;SDS011;292;48.800;9.216;2023-12-22T03:11:48;10.15;;;1.58;;
609;SDS011;292;48.800;9.216;2023-12-22T03:14:18;9.32;;;1.23;;
609;SDS011;292;48.800;9.216;2023-12-22T03:16:45;4.35;;;1.17;;
609;SDS011;292;48.800;9.216;2023-12-22T03:19:12;5.90;;;1.00;;
609;SDS011;292;48.800;9.216;2023-12-22T03:21:39;8.10;;;1.30;;
609;SDS011;292;48.800;9.216;2023-12-22T03:24:06;2.58;;;0.90;;
609;SDS011;292;48.800;9.216;2023-12-22T03:26:33;5.43;;;1.00;;
609;SDS011;292;48.800;9.216;2023-12-22T03:29:00;6.97;;;1.20;;
609;SDS011;292;48.800;9.216;2023-12-22T03:31:28;3.38;;;0.90;;
609;SDS011;292;48.800;9.216;2023-12-22T03:33:55;9.20;;;1.10;;
609;SDS011;292;48.800;9.216;2023-12-22T03:36:22;2.00;;;0.90;;
609;SDS011;292;48.800;9.216;2023-12-22T03:38:49;13.07;;;1.88;;
609;SDS011;292;48.800;9.216;2023-12-22T03:41:16;6.03;;;1.00;;
609;SDS011;292;48.800;9.216;2023-12-22T03:43:43;10.60;;;1.55;;
609;SDS011;292;48.800;9.216;2023-12-22T03:46:10;6.93;;;1.48;;
609;SDS011;292;48.800;9.216;2023-12-22T03:48:38;7.35;;;1.25;;
609;SDS011;292;48.800;9.216;2023-12-22T03:51:05;10.73;;;1.25;;
609;SDS011;292;48.800;9.216;2023-12-22T03:53:32;6.22;;;1.10;;
609;SDS011;292;48.800;9.216;2023-12-22T03:55:59;2.20;;;1.02;;
609;SDS011;292;48.800;9.216;2023-12-22T03:58:26;10.25;;;1.48;;
609;SDS011;292;48.800;9.216;2023-12-22T04:00:54;5.47;;;0.95;;
609;SDS011;292;48.800;9.216;2023-12-22T04:03:21;2.97;;;0.88;;
609;SDS011;292;48.800;9.216;2023-12-22T04:05:50;7.05;;;1.27;;
609;SDS011;292;48.800;9.216;2023-12-22T04:08:17;6.13;;;1.23;;
609;SDS011;292;48.800;9.216;2023-12-22T04:10:45;6.43;;;1.13;;
609;SDS011;292;48.800;9.216;2023-12-22T04:13:12;7.80;;;1.30;;
609;SDS011;292;48.800;9.216;2023-12-22T04:15:39;5.78;;;1.27;;
609;SDS011;292;48.800;9.216;2023-12-22T04:18:06;12.18;;;1.50;;
609;SDS011;292;48.800;9.216;2023-12-22T04:20:33;3.63;;;1.15;;
609;SDS011;292;48.800;9.216;2023-12-22T04:23:01;11.50;;;2.00;;
609;SDS011;292;48.800;9.216;2023-12-22T04:25:28;11.60;;;1.60;;
609;SDS011;292;48.800;9.216;2023-12-22T04:27:55;4.88;;;1.15;;
609;SDS011;292;48.800;9.216;2023-12-22T04:30:22;10.88;;;1.90;;
609;SDS011;292;48.800;9.216;2023-12-22T04:32:51;9.48;;;1.48;;
609;SDS011;292;48.800;9.216;2023-12-22T04:35:18;7.45;;;1.52;;
609;SDS011;292;48.800;9.216;2023-12-22T04:37:45;10.63;;;1.85;;
609;SDS011;292;48.800;9.216;2023-12-22T04:40:13;2.97;;;1.02;;
609;SDS011;292;48.800;9.216;2023-12-22T04:42:40;4.50;;;1.02;;
609;SDS011;292;48.800;9.216;2023-12-22T04:45:08;8.60;;;1.10;;
609;SDS011;292;48.800;9.216;2023-12-22T04:47:35;4.43;;;1.33;;
609;SDS011;292;48.800;9.216;2023-12-22T04:50:02;3.10;;;0.98;;
609;SDS011;292;48.800;9.216;2023-12-22T04:52:29;10.00;;;1.25;;
609;SDS011;292;48.800;9.216;2023-12-22T04:54:56;6.13;;;0.88;;
609;SDS011;292;48.800;9.216;2023-12-22T04:57:24;6.40;;;1.02;;
609;SDS011;292;48.800;9.216;2023-12-22T04:59:51;4.18;;;1.05;;
609;SDS011;292;48.800;9.216;2023-12-22T05:02:18;4.88;;;0.90;;
609;SDS011;292;48.800;9.216;2023-12-22T05:04:47;5.78;;;1.42;;
609;SDS011;292;48.800;9.216;2023-12-22T05:07:14;2.65;;;0.70;;
609;SDS011;292;48.800;9.216;2023-12-22T05:09:41;5.35;;;1.15;;
609;SDS011;292;48.800;9.216;2023-12-22T05:12:08;2.50;;;0.98;;
609;SDS011;292;48.800;9.216;2023-12-22T05:14:37;6.40;;;1.30;;
609;SDS011;292;48.800;9.216;2023-12-22T05:17:04;16.25;;;1.40;;
609;SDS011;292;48.800;9.216;2023-12-22T05:19:31;8.48;;;1.20;;
609;SDS011;292;48.800;9.216;2023-12-22T05:21:58;8.20;;;1.65;;
609;SDS011;292;48.800;9.216;2023-12-22T05:24:25;9.40;;;1.95;;
609;SDS011;292;48.800;9.216;2023-12-22T05:26:52;4.78;;;1.42;;
609;SDS011;292;48.800;9.216;2023-12-22T05:29:20;8.27;;;1.65;;
609;SDS011;292;48.800;9.216;2023-12-22T05:31:49;8.80;;;1.42;;
609;SDS011;292;48.800;9.216;2023-12-22T05:34:16;13.30;;;2.08;;
609;SDS011;292;48.800;9.216;2023-12-22T05:36:43;11.48;;;2.28;;
609;SDS011;292;48.800;9.216;2023-12-22T05:39:10;4.88;;;1.52;;
609;SDS011;292;48.800;9.216;2023-12-22T05:41:37;13.38;;;2.10;;
609;SDS011;292;48.800;9.216;2023-12-22T05:44:04;7.35;;;1.85;;
609;SDS011;292;48.800;9.216;2023-12-22T05:46:35;19.25;;;2.88;;
609;SDS011;292;48.800;9.216;2023-12-22T05:49:04;14.27;;;2.05;;
609;SDS011;292;48.800;9.216;2023-12-22T05:51:35;9.00;;;2.17;;
609;SDS011;292;48.800;9.216;2023-12-22T05:54:03;10.10;;;2.10;;
609;SDS011;292;48.800;9.216;2023-12-22T05:56:30;20.50;;;2.97;;
609;SDS011;292;48.800;9.216;2023-12-22T05:58:57;9.18;;;1.90;;
609;SDS011;292;48.800;9.216;2023-12-22T06:01:24;21.80;;;1.90;;
609;SDS011;292;48.800;9.216;2023-12-22T06:03:52;20.95;;;2.38;;
609;SDS011;292;48.800;9.216;2023-12-22T06:06:21;12.75;;;1.50;;
609;SDS011;292;48.800;9.216;2023-12-22T06:08:48;8.27;;;1.73;;
609;SDS011;292;48.800;9.216;2023-12-22T06:11:15;11.25;;;1.50;;
609;SDS011;292;48.800;9.216;2023-12-22T06:13:42;11.90;;;2.45;;
609;SDS011;292;48.800;9.216;2023-12-22T06:16:11;17.30;;;2.28;;
609;SDS011;292;48.800;9.216;2023-12-22T06:18:39;10.50;;;1.77;;
609;SDS011;292;48.800;9.216;2023-12-22T06:21:06;8.70;;;1.80;;
609;SDS011;292;48.800;9.216;2023-12-22T06:23:34;17.58;;;1.92;;
609;SDS011;292;48.800;9.216;2023-12-22T06:26:01;9.05;;;2.15;;
609;SDS011;292;48.800;9.216;2023-12-22T06:28:33;12.75;;;2.10;;
609;SDS011;292;48.800;9.216;2023-12-22T06:31:01;17.63;;;1.67;;
609;SDS011;292;48.800;9.216;2023-12-22T06:33:28;8.93;;;2.10;;
609;SDS011;292;48.800;9.216;2023-12-22T06:35:56;9.30;;;1.98;;
609;SDS011;292;48.800;9.216;2023-12-22T06:38:23;14.18;;;2.03;;
609;SDS011;292;48.800;9.216;2023-12-22T06:40:51;8.40;;;1.85;;
609;SDS011;292;48.800;9.216;2023-12-22T06:43:18;12.07;;;1.85;;
609;SDS011;292;48.800;9.216;2023-12-22T06:45:45;8.63;;;2.00;;
609;SDS011;292;48.800;9.216;2023-12-22T06:48:13;13.77;;;1.80;;
609;SDS011;292;48.800;9.216;2023-12-22T06:50:40;8.73;;;1.30;;
609;SDS011;292;48.800;9.216;2023-12-22T06:53:09;5.80;;;1.75;;
609;SDS011;292;48.800;9.216;2023-12-22T06:55:36;6.40;;;1.60;;
609;SDS011;292;48.800;9.216;2023-12-22T06:58:05;11.45;;;2.03;;
609;SDS011;292;48.800;9.216;2023-12-22T07:00:32;13.60;;;1.90;;
609;SDS011;292;48.800;9.216;2023-12-22T07:02:58;13.95;;;1.40;;
609;SDS011;292;48.800;9.216;2023-12-22T07:05:29;10.30;;;2.23;;
609;SDS011;292;48.800;9.216;2023-12-22T07:08:01;9.82;;;2.03;;
609;SDS011;292;48.800;9.216;2023-12-22T07:10:29;11.55;;;1.90;;
609;SDS011;292;48.800;9.216;2023-12-22T07:12:56;7.32;;;2.05;;
609;SDS011;292;48.800;9.216;2023-12-22T07:15:25;9.57;;;2.00;;
609;SDS011;292;48.800;9.216;2023-12-22T07:17:53;8.93;;;1.48;;
609;SDS011;292;48.800;9.216;2023-12-22T07:20:20;6.78;;;1.77;;
609;SDS011;292;48.800;9.216;2023-12-22T07:22:47;7.00;;;1.50;;
609;SDS011;292;48.800;9.216;2023-12-22T07:25:15;6.20;;;1.70;;
609;SDS011;292;48.800;9.216;2023-12-22T07:27:44;3.80;;;1.40;;
609;SDS011;292;48.800;9.216;2023-12-22T07:30:11;13.32;;;1.60;;
609;SDS011;292;48.800;9.216;2023-12-22T07:32:43;6.53;;;1.55;;
609;SDS011;292;48.800;9.216;2023-12-22T07:35:14;9.95;;;1.95;;
609;SDS011;292;48.800;9.216;2023-12-22T07:37:41;8.65;;;1.50;;
609;SDS011;292;48.800;9.216;2023-12-22T07:40:08;14.20;;;2.30;;
609;SDS011;292;48.800;9.216;2023-12-22T07:42:36;11.17;;;1.87;;
609;SDS011;292;48.800;9.216;2023-12-22T07:45:04;6.32;;;1.67;;
609;SDS011;292;48.800;9.216;2023-12-22T07:47:32;7.93;;;1.42;;
609;SDS011;292;48.800;9.216;2023-12-22T07:50:01;12.35;;;1.48;;
609;SDS011;292;48.800;9.216;2023-12-22T07:52:28;5.15;;;1.23;;
609;SDS011;292;48.800;9.216;2023-12-22T07:54:54;2.60;;;0.93;;
609;SDS011;292;48.800;9.216;2023-12-22T07:57:21;17.20;;;1.92;;
609;SDS011;292;48.800;9.216;2023-12-22T07:59:48;7.45;;;1.50;;
609;SDS011;292;48.800;9.216;2023-12-22T08:02:15;6.03;;;1.20;;
609;SDS011;292;48.800;9.216;2023-12-22T08:04:42;13.73;;;2.15;;
609;SDS011;292;48.800;9.216;2023-12-22T08:07:11;10.70;;;1.50;;
609;SDS011;292;48.800;9.216;2023-12-22T08:09:37;9.98;;;2.20;;
609;SDS011;292;48.800;9.216;2023-12-22T08:12:05;6.78;;;1.58;;
609;SDS011;292;48.800;9.216;2023-12-22T08:14:32;8.90;;;1.20;;
609;SDS011;292;48.800;9.216;2023-12-22T08:16:59;17.10;;;1.60;;
609;SDS011;292;48.800;9.216;2023-12-22T08:19:26;7.55;;;1.25;;
609;SDS011;292;48.800;9.216;2023-12-22T08:21:53;10.43;;;1.75;;
609;SDS011;292;48.800;9.216;2023-12-22T08:24:22;19.17;;;1.42;;
609;SDS011;292;48.800;9.216;2023-12-22T08:26:49;8.77;;;1.33;;
609;SDS011;292;48.800;9.216;2023-12-22T08:29:16;9.10;;;1.45;;
609;SDS011;292;48.800;9.216;2023-12-22T08:31:43;9.10;;;1.67;;
609;SDS011;292;48.800;9.216;2023-12-22T08:34:11;16.17;;;2.85;;
609;SDS011;292;48.800;9.216;2023-12-22T08:36:38;9.13;;;1.80;;
609;SDS011;292;48.800;9.216;2023-12-22T08:39:05;5.55;;;2.10;;
609;SDS011;292;48.800;9.216;2023-12-22T08:41:34;11.18;;;2.15;;
609;SDS011;292;48.800;9.216;2023-12-22T08:44:02;9.35;;;2.28;;
609;SDS011;292;48.800;9.216;2023-12-22T08:46:29;16.48;;;2.45;;
609;SDS011;292;48.800;9.216;2023-12-22T08:48:56;16.30;;;2.40;;
609;SDS011;292;48.800;9.216;2023-12-22T08:51:24;24.35;;;2.17;;
609;SDS011;292;48.800;9.216;2023-12-22T08:53:51;19.58;;;2.67;;
609;SDS011;292;48.800;9.216;2023-12-22T08:56:19;15.52;;;2.85;;
609;SDS011;292;48.800;9.216;2023-12-22T08:58:48;18.55;;;2.78;;
609;SDS011;292;48.800;9.216;2023-12-22T09:01:18;33.60;;;3.55;;
609;SDS011;292;48.800;9.216;2023-12-22T09:03:45;11.23;;;2.72;;
609;SDS011;292;48.800;9.216;2023-12-22T09:06:13;24.70;;;2.78;;
609;SDS011;292;48.800;9.216;2023-12-22T09:08:41;11.25;;;2.10;;
609;SDS011;292;48.800;9.216;2023-12-22T09:11:08;12.95;;;1.75;;
609;SDS011;292;48.800;9.216;2023-12-22T09:13:36;8.02;;;2.00;;
609;SDS011;292;48.800;9.216;2023-12-22T09:16:05;19.08;;;2.97;;
609;SDS011;292;48.800;9.216;2023-12-22T09:18:32;18.80;;;2.42;;
609;SDS011;292;48.800;9.216;2023-12-22T09:21:00;12.65;;;2.05;;
609;SDS011;292;48.800;9.216;2023-12-22T09:23:27;20.17;;;2.50;;
609;SDS011;292;48.800;9.216;2023-12-22T09:25:54;16.55;;;2.65;;
609;SDS011;292;48.800;9.216;2023-12-22T09:28:21;16.73;;;2.53;;
609;SDS011;292;48.800;9.216;2023-12-22T09:30:48;15.20;;;2.35;;
609;SDS011;292;48.800;9.216;2023-12-22T09:33:17;10.75;;;3.10;;
609;SDS011;292;48.800;9.216;2023-12-22T09:35:44;16.35;;;2.70;;
609;SDS011;292;48.800;9.216;2023-12-22T09:38:11;12.43;;;2.13;;
609;SDS011;292;48.800;9.216;2023-12-22T09:40:38;18.30;;;2.60;;
609;SDS011;292;48.800;9.216;2023-12-22T09:43:06;24.97;;;3.47;;
609;SDS011;292;48.800;9.216;2023-12-22T09:45:33;17.40;;;3.15;;
609;SDS011;292;48.800;9.216;2023-12-22T09:48:00;16.08;;;2.55;;
609;SDS011;292;48.800;9.216;2023-12-22T09:50:30;18.17;;;2.50;;
609;SDS011;292;48.800;9.216;2023-12-22T09:52:59;15.10;;;2.73;;
609;SDS011;292;48.800;9.216;2023-12-22T09:55:28;15.27;;;2.83;;
609;SDS011;292;48.800;9.216;2023-12-22T09:57:57;16.30;;;2.70;;
609;SDS011;292;48.800;9.216;2023-12-22T10:00:25;21.08;;;3.38;;
609;SDS011;292;48.800;9.216;2023-12-22T10:02:55;22.20;;;2.47;;
609;SDS011;292;48.800;9.216;2023-12-22T10:05:22;14.38;;;2.53;;
609;SDS011;292;48.800;9.216;2023-12-22T10:07:50;13.73;;;2.87;;
609;SDS011;292;48.800;9.216;2023-12-22T10:10:19;28.13;;;4.65;;
609;SDS011;292;48.800;9.216;2023-12-22T10:12:47;22.93;;;3.80;;
609;SDS011;292;48.800;9.216;2023-12-22T10:15:14;20.42;;;2.92;;
609;SDS011;292;48.800;9.216;2023-12-22T10:17:43;12.40;;;2.58;;
609;SDS011;292;48.800;9.216;2023-12-22T10:20:11;25.40;;;3.28;;
609;SDS011;292;48.800;9.216;2023-12-22T10:22:38;20.35;;;2.70;;
609;SDS011;292;48.800;9.216;2023-12-22T10:25:07;14.10;;;2.60;;
609;SDS011;292;48.800;9.216;2023-12-22T10:27:35;15.80;;;2.75;;
609;SDS011;292;48.800;9.216;2023-12-22T10:30:03;15.82;;;2.65;;
609;SDS011;292;48.800;9.216;2023-12-22T10:32:31;13.80;;;2.20;;
609;SDS011;292;48.800;9.216;2023-12-22T10:34:57;14.47;;;2.23;;
609;SDS011;292;48.800;9.216;2023-12-22T10:37:24;20.92;;;2.80;;
609;SDS011;292;48.800;9.216;2023-12-22T10:39:51;13.70;;;2.70;;
609;SDS011;292;48.800;9.216;2023-12-22T10:42:20;19.30;;;2.30;;
609;SDS011;292;48.800;9.216;2023-12-22T10:44:47;11.30;;;2.25;;
609;SDS011;292;48.800;9.216;2023-12-22T10:47:15;20.90;;;2.40;;
609;SDS011;292;48.800;9.216;2023-12-22T10:49:43;13.27;;;3.13;;
609;SDS011;292;48.800;9.216;2023-12-22T10:52:15;9.77;;;1.85;;
609;SDS011;292;48.800;9.216;2023-12-22T10:54:42;16.00;;;2.22;;
609;SDS011;292;48.800;9.216;2023-12-22T10:57:10;22.33;;;2.30;;
609;SDS011;292;48.800;9.216;2023-12-22T10:59:40;16.08;;;2.65;;
609;SDS011;292;48.800;9.216;2023-12-22T11:02:11;8.88;;;2.10;;
609;SDS011;292;48.800;9.216;2023-12-22T11:04:44;10.98;;;1.90;;
609;SDS011;292;48.800;9.216;2023-12-22T11:07:18;8.43;;;1.60;;
609;SDS011;292;48.800;9.216;2023-12-22T11:09:49;9.95;;;1.60;;
609;SDS011;292;48.800;9.216;2023-12-22T11:12:18;6.70;;;1.30;;
609;SDS011;292;48.800;9.216;2023-12-22T11:14:47;6.30;;;1.80;;
609;SDS011;292;48.800;9.216;2023-12-22T11:17:16;3.95;;;1.55;;
609;SDS011;292;48.800;9.216;2023-12-22T11:19:47;5.97;;;1.55;;
609;SDS011;292;48.800;9.216;2023-12-22T11:22:15;10.50;;;1.40;;
609;SDS011;292;48.800;9.216;2023-12-22T11:24:44;6.35;;;1.10;;
609;SDS011;292;48.800;9.216;2023-12-22T11:27:15;8.30;;;1.20;;
609;SDS011;292;48.800;9.216;2023-12-22T11:29:44;5.73;;;1.23;;
609;SDS011;292;48.800;9.216;2023-12-22T11:32:14;5.70;;;1.17;;
609;SDS011;292;48.800;9.216;2023-12-22T11:34:42;4.80;;;1.17;;
609;SDS011;292;48.800;9.216;2023-12-22T11:37:10;7.50;;;1.57;;
609;SDS011;292;48.800;9.216;2023-12-22T11:39:38;2.00;;;0.93;;
609;SDS011;292;48.800;9.216;2023-12-22T11:42:06;2.87;;;1.00;;
609;SDS011;292;48.800;9.216;2023-12-22T11:44:34;8.37;;;1.53;;
609;SDS011;292;48.800;9.216;2023-12-22T11:47:07;6.72;;;1.13;;
609;SDS011;292;48.800;9.216;2023-12-22T11:49:36;3.17;;;0.88;;
609;SDS011;292;48.800;9.216;2023-12-22T11:52:10;4.37;;;1.07;;
609;SDS011;292;48.800;9.216;2023-12-22T11:54:44;4.80;;;0.90;;
609;SDS011;292;48.800;9.216;2023-12-22T11:57:32;11.93;;;1.10;;
609;SDS011;292;48.800;9.216;2023-12-22T12:00:01;3.75;;;1.10;;
609;SDS011;292;48.800;9.216;2023-12-22T12:02:34;8.05;;;1.33;;
609;SDS011;292;48.800;9.216;2023-12-22T12:05:03;5.30;;;1.25;;
609;SDS011;292;48.800;9.216;2023-12-22T12:07:40;7.68;;;1.38;;
609;SDS011;292;48.800;9.216;2023-12-22T12:10:10;2.58;;;0.88;;
609;SDS011;292;48.800;9.216;2023-12-22T12:12:39;3.43;;;1.00;;
609;SDS011;292;48.800;9.216;2023-12-22T12:15:07;3.92;;;0.70;;
609;SDS011;292;48.800;9.216;2023-12-22T12:17:40;5.90;;;1.10;;
609;SDS011;292;48.800;9.216;2023-12-22T12:20:08;4.72;;;0.80;;
609;SDS011;292;48.800;9.216;2023-12-22T12:22:37;3.78;;;1.20;;
609;SDS011;292;48.800;9.216;2023-12-22T12:25:07;3.17;;;0.80;;
609;SDS011;292;48.800;9.216;2023-12-22T12:27:35;2.78;;;1.10;;
609;SDS011;292;48.800;9.216;2023-12-22T12:30:07;3.58;;;0.90;;
609;SDS011;292;48.800;9.216;2023-12-22T12:32:39;4.55;;;1.15;;
609;SDS011;292;48.800;9.216;2023-12-22T12:35:11;3.63;;;0.93;;
609;SDS011;292;48.800;9.216;2023-12-22T12:37:38;8.60;;;0.80;;
609;SDS011;292;48.800;9.216;2023-12-22T12:40:07;5.40;;;0.75;;
609;SDS011;292;48.800;9.216;2023-12-22T12:42:35;3.38;;;0.85;;
609;SDS011;292;48.800;9.216;2023-12-22T12:45:04;2.47;;;0.77;;
609;SDS011;292;48.800;9.216;2023-12-22T12:47:31;4.53;;;1.48;;
609;SDS011;292;48.800;9.216;2023-12-22T12:50:00;3.20;;;0.90;;
609;SDS011;292;48.800;9.216;2023-12-22T12:52:27;4.10;;;0.73;;
609;SDS011;292;48.800;9.216;2023-12-22T12:54:55;1.48;;;0.70;;
609;SDS011;292;48.800;9.216;2023-12-22T12:57:23;1.48;;;0.50;;
609;SDS011;292;48.800;9.216;2023-12-22T12:59:51;3.28;;;0.68;;
609;SDS011;292;48.800;9.216;2023-12-22T13:02:18;0.70;;;0.60;;
609;SDS011;292;48.800;9.216;2023-12-22T13:04:49;3.35;;;0.52;;
609;SDS011;292;48.800;9.216;2023-12-22T13:07:24;2.05;;;0.70;;
609;SDS011;292;48.800;9.216;2023-12-22T13:09:52;2.45;;;0.63;;
609;SDS011;292;48.800;9.216;2023-12-22T13:12:22;7.75;;;1.00;;
609;SDS011;292;48.800;9.216;2023-12-22T13:14:50;4.30;;;0.90;;
609;SDS011;292;48.800;9.216;2023-12-22T13:17:17;1.70;;;0.67;;
609;SDS011;292;48.800;9.216;2023-12-22T13:19:44;2.78;;;0.70;;
609;SDS011;292;48.800;9.216;2023-12-22T13:22:11;2.85;;;0.90;;
609;SDS011;292;48.800;9.216;2023-12-22T13:24:40;0.70;;;0.50;;
609;SDS011;292;48.800;9.216;2023-12-22T13:27:08;0.47;;;0.47;;
609;SDS011;292;48.800;9.216;2023-12-22T13:29:42;5.28;;;0.40;;
609;SDS011;292;48.800;9.216;2023-12-22T13:32:14;1.83;;;0.50;;
609;SDS011;292;48.800;9.216;2023-12-22T13:34:46;1.00;;;0.40;;
609;SDS011;292;48.800;9.216;2023-12-22T13:37:17;0.60;;;0.30;;
609;SDS011;292;48.800;9.216;2023-12-22T13:39:46;0.73;;;0.40;;
609;SDS011;292;48.800;9.216;2023-12-22T13:42:14;0.90;;;0.47;;
609;SDS011;292;48.800;9.216;2023-12-22T13:44:43;0.50;;;0.30;;
609;SDS011;292;48.800;9.216;2023-12-22T13:47:12;3.60;;;0.50;;
609;SDS011;292;48.800;9.216;2023-12-22T13:49:40;0.50;;;0.43;;
609;SDS011;292;48.800;9.216;2023-12-22T13:52:07;0.50;;;0.30;;
609;SDS011;292;48.800;9.216;2023-12-22T13:54:34;0.70;;;0.50;;
609;SDS011;292;48.800;9.216;2023-12-22T13:57:03;0.50;;;0.30;;
609;SDS011;292;48.800;9.216;2023-12-22T13:59:31;1.13;;;0.60;;
609;SDS011;292;48.800;9.216;2023-12-22T14:01:58;0.40;;;0.40;;
609;SDS011;292;48.800;9.216;2023-12-22T14:04:25;0.40;;;0.40;;
609;SDS011;292;48.800;9.216;2023-12-22T14:06:52;1.30;;;0.50;;
609;SDS011;292;48.800;9.216;2023-12-22T14:09:19;1.07;;;0.60;;
609;SDS011;292;48.800;9.216;2023-12-22T14:11:49;0.47;;;0.33;;
609;SDS011;292;48.800;9.216;2023-12-22T14:14:18;1.63;;;0.60;;
609;SDS011;292;48.800;9.216;2023-12-22T14:16:45;0.40;;;0.40;;
609;SDS011;292;48.800;9.216;2023-12-22T14:19:12;0.50;;;0.40;;
609;SDS011;292;48.800;9.216;2023-12-22T14:21:39;1.47;;;0.50;;
609;SDS011;292;48.800;9.216;2023-12-22T14:24:06;2.60;;;0.57;;
609;SDS011;292;48.800;9.216;2023-12-22T14:26:33;0.97;;;0.50;;
609;SDS011;292;48.800;9.216;2023-12-22T14:29:21;1.03;;;0.53;;
609;SDS011;292;48.800;9.216;2023-12-22T14:31:48;0.40;;;0.37;;
609;SDS011;292;48.800;9.216;2023-12-22T14:34:16;0.90;;;0.40;;
609;SDS011;292;48.800;9.216;2023-12-22T14:36:43;0.40;;;0.40;;
609;SDS011;292;48.800;9.216;2023-12-22T14:39:10;1.60;;;0.33;;
609;SDS011;292;48.800;9.216;2023-12-22T14:41:38;0.60;;;0.40;;
609;SDS011;292;48.800;9.216;2023-12-22T14:44:06;1.17;;;0.40;;
609;SDS011;292;48.800;9.216;2023-12-22T14:46:36;1.13;;;0.40;;
609;SDS011;292;48.800;9.216;2023-12-22T14:49:04;0.87;;;0.50;;
609;SDS011;292;48.800;9.216;2023-12-22T14:51:34;0.40;;;0.40;;
609;SDS011;292;48.800;9.216;2023-12-22T14:54:03;0.40;;;0.30;;
609;SDS011;292;48.800;9.216;2023-12-22T14:56:30;0.77;;;0.50;;
609;SDS011;292;48.800;9.216;2023-12-22T14:58:57;3.70;;;0.60;;
609;SDS011;292;48.800;9.216;2023-12-22T15:01:24;0.57;;;0.50;;
609;SDS011;292;48.800;9.216;2023-12-22T15:03:52;1.17;;;0.50;;
609;SDS011;292;48.800;9.216;2023-12-22T15:06:20;0.60;;;0.43;;
609;SDS011;292;48.800;9.216;2023-12-22T15:08:47;0.80;;;0.50;;
609;SDS011;292;48.800;9.216;2023-12-22T15:11:14;1.83;;;0.90;;
609;SDS011;292;48.800;9.216;2023-12-22T15:13:42;1.20;;;0.50;;
609;SDS011;292;48.800;9.216;2023-12-22T15:16:09;0.57;;;0.50;;
609;SDS011;292;48.800;9.216;2023-12-22T15:18:36;1.43;;;0.40;;
609;SDS011;292;48.800;9.216;2023-12-22T15:21:05;0.50;;;0.40;;
609;SDS011;292;48.800;9.216;2023-12-22T15:23:32;0.60;;;0.50;;
609;SDS011;292;48.800;9.216;2023-12-22T15:25:59;2.33;;;0.77;;
609;SDS011;292;48.800;9.216;2023-12-22T15:28:26;0.40;;;0.33;;
609;SDS011;292;48.800;9.216;2023-12-22T15:30:53;1.63;;;0.50;;
609;SDS011;292;48.800;9.216;2023-12-22T15:33:20;0.77;;;0.50;;
609;SDS011;292;48.800;9.216;2023-12-22T15:35:47;3.17;;;0.50;;
609;SDS011;292;48.800;9.216;2023-12-22T15:38:16;1.13;;;0.50;;
609;SDS011;292;48.800;9.216;2023-12-22T15:40:43;0.77;;;0.50;;
609;SDS011;292;48.800;9.216;2023-12-22T15:43:11;0.93;;;0.60;;
609;SDS011;292;48.800;9.216;2023-12-22T15:45:38;0.40;;;0.30;;
609;SDS011;292;48.800;9.216;2023-12-22T15:48:05;0.70;;;0.50;;